createdAt,value
2023-01-08T00:00:01.585Z,47.70
2023-01-08T00:01:00.665Z,40.93
2023-01-08T00:02:00.562Z,44.96
2023-01-08T00:03:00.688Z,36.25
2023-01-08T00:04:00.754Z,38.35
2023-01-08T00:05:00.635Z,39.80
2023-01-08T00:06:00.507Z,38.19
2023-01-08T00:07:00.567Z,45.44
2023-01-08T00:08:00.519Z,45.92
2023-01-08T00:09:00.484Z,40.93
2023-01-08T00:10:00.489Z,42.70
2023-01-08T00:11:00.511Z,49.15
2023-01-08T00:12:00.539Z,43.51
2023-01-08T00:13:00.510Z,44.79
2023-01-08T00:14:00.537Z,41.09
2023-01-08T00:15:00.411Z,41.57
2023-01-08T00:16:00.424Z,48.34
2023-01-08T00:17:00.577Z,44.15
2023-01-08T00:18:00.459Z,46.08
2023-01-08T00:19:00.404Z,46.25
2023-01-08T00:20:00.707Z,43.67
2023-01-08T00:21:00.346Z,45.92
2023-01-08T00:22:00.380Z,46.08
2023-01-08T00:23:00.397Z,45.60
2023-01-08T00:24:00.344Z,43.18
2023-01-08T00:25:00.348Z,43.34
2023-01-08T00:26:00.448Z,51.40
2023-01-08T00:27:00.386Z,49.63
2023-01-08T00:28:00.512Z,48.82
2023-01-08T00:29:00.266Z,48.82
2023-01-08T00:30:00.502Z,47.37
2023-01-08T00:31:02.599Z,45.76
2023-01-08T00:32:00.376Z,47.37
2023-01-08T00:33:00.257Z,42.22
2023-01-08T00:34:00.349Z,44.96
2023-01-08T00:35:00.293Z,46.08
2023-01-08T00:36:00.301Z,48.50
2023-01-08T00:37:00.242Z,48.66
2023-01-08T00:38:00.322Z,46.41
2023-01-08T00:39:00.177Z,42.06
2023-01-08T00:40:01.631Z,39.96
2023-01-08T00:41:00.156Z,41.57
2023-01-08T00:42:00.976Z,40.12
2023-01-08T00:43:00.331Z,42.38
2023-01-08T00:44:00.251Z,43.83
2023-01-08T00:45:00.165Z,45.44
2023-01-08T00:46:00.376Z,42.86
2023-01-08T00:47:00.182Z,39.96
2023-01-08T00:48:00.136Z,40.77
2023-01-08T00:49:00.177Z,42.86
2023-01-08T00:50:00.143Z,47.70
2023-01-08T00:51:00.361Z,45.92
2023-01-08T00:52:00.039Z,42.54
2023-01-08T00:53:00.117Z,40.12
2023-01-08T00:54:00.061Z,45.28
2023-01-08T00:55:00.035Z,44.96
2023-01-08T00:56:00.017Z,45.44
2023-01-08T00:57:00.041Z,40.12
2023-01-08T00:58:00.632Z,39.16
2023-01-08T00:59:00.113Z,43.02
2023-01-08T00:59:59.971Z,45.76
2023-01-08T01:00:59.958Z,40.77
2023-01-08T01:02:00.228Z,42.06
2023-01-08T01:02:59.957Z,40.28
2023-01-08T01:03:59.979Z,35.13
2023-01-08T01:04:59.951Z,42.06
2023-01-08T01:05:59.913Z,38.83
2023-01-08T01:07:00.026Z,39.96
2023-01-08T01:07:59.926Z,37.71
2023-01-08T01:08:59.916Z,35.29
2023-01-08T01:09:59.854Z,40.77
2023-01-08T01:10:59.886Z,38.67
2023-01-08T01:12:00.231Z,44.96
2023-01-08T01:12:59.902Z,43.83
2023-01-08T01:14:00.086Z,42.38
2023-01-08T01:14:59.845Z,41.09
2023-01-08T01:15:59.816Z,38.99
2023-01-08T01:16:59.945Z,37.54
2023-01-08T01:17:59.874Z,38.35
2023-01-08T01:18:59.835Z,34.48
2023-01-08T01:19:59.881Z,36.25
2023-01-08T01:21:00.577Z,36.42
2023-01-08T01:21:59.775Z,34.48
2023-01-08T01:22:59.852Z,38.19
2023-01-08T01:23:59.763Z,34.64
2023-01-08T01:24:59.740Z,40.28
2023-01-08T01:25:59.782Z,39.16
2023-01-08T01:26:59.778Z,36.58
2023-01-08T01:27:59.781Z,38.67
2023-01-08T01:28:59.666Z,36.25
2023-01-08T01:29:59.755Z,33.84
2023-01-08T01:30:59.684Z,33.03
2023-01-08T01:31:59.673Z,33.84
2023-01-08T01:32:59.993Z,39.64
2023-01-08T01:33:59.770Z,39.80
2023-01-08T01:34:59.656Z,48.34
2023-01-08T01:35:59.646Z,39.32
2023-01-08T01:36:59.781Z,36.09
2023-01-08T01:37:59.585Z,36.25
2023-01-08T01:38:59.604Z,39.48
2023-01-08T01:39:59.597Z,41.41
2023-01-08T01:40:59.617Z,36.74
2023-01-08T01:41:59.584Z,38.03
2023-01-08T01:42:59.582Z,38.03
2023-01-08T01:43:59.554Z,38.19
2023-01-08T01:44:59.561Z,35.29
2023-01-08T01:45:59.601Z,34.80
2023-01-08T01:46:59.508Z,34.97
2023-01-08T01:47:59.580Z,34.48
2023-01-08T01:48:59.542Z,36.90
2023-01-08T01:49:59.543Z,38.99
2023-01-08T01:50:59.600Z,41.41
2023-01-08T01:51:59.475Z,41.57
2023-01-08T01:52:59.420Z,44.96
2023-01-08T01:53:59.498Z,35.93
2023-01-08T01:54:59.696Z,38.67
2023-01-08T01:55:59.399Z,36.25
2023-01-08T01:56:59.433Z,34.80
2023-01-08T01:57:59.463Z,42.38
2023-01-08T01:58:59.473Z,38.35
2023-01-08T01:59:59.732Z,40.77
2023-01-08T02:00:59.388Z,41.41
2023-01-08T02:01:59.586Z,39.48
2023-01-08T02:03:00.285Z,39.64
2023-01-08T02:03:59.399Z,40.93
2023-01-08T02:04:59.348Z,38.99
2023-01-08T02:05:59.587Z,41.09
2023-01-08T02:06:59.307Z,39.96
2023-01-08T02:07:59.279Z,38.51
2023-01-08T02:08:59.326Z,44.79
2023-01-08T02:09:59.407Z,42.38
2023-01-08T02:10:59.237Z,43.18
2023-01-08T02:11:59.355Z,43.83
2023-01-08T02:12:59.353Z,41.41
2023-01-08T02:13:59.275Z,41.41
2023-01-08T02:14:59.242Z,43.99
2023-01-08T02:15:59.240Z,44.47
2023-01-08T02:16:59.189Z,42.06
2023-01-08T02:17:59.240Z,40.61
2023-01-08T02:18:59.239Z,41.73
2023-01-08T02:19:59.197Z,44.15
2023-01-08T02:20:59.681Z,42.86
2023-01-08T02:21:59.305Z,44.63
2023-01-08T02:22:59.195Z,42.70
2023-01-08T02:23:59.526Z,43.34
2023-01-08T02:24:59.192Z,42.38
2023-01-08T02:25:59.320Z,42.38
2023-01-08T02:26:59.135Z,43.18
2023-01-08T02:27:59.721Z,41.41
2023-01-08T02:28:59.054Z,41.89
2023-01-08T02:29:59.252Z,46.41
2023-01-08T02:30:59.152Z,46.25
2023-01-08T02:31:59.040Z,40.44
2023-01-08T02:32:59.140Z,38.99
2023-01-08T02:33:59.054Z,41.57
2023-01-08T02:35:00.151Z,46.41
2023-01-08T02:35:59.117Z,47.37
2023-01-08T02:36:58.993Z,44.63
2023-01-08T02:37:59.455Z,43.99
2023-01-08T02:38:58.986Z,42.70
2023-01-08T02:39:59.027Z,39.48
2023-01-08T02:40:58.972Z,38.83
2023-01-08T02:41:59.673Z,40.93
2023-01-08T02:42:59.001Z,37.38
2023-01-08T02:43:58.945Z,36.58
2023-01-08T02:44:59.055Z,40.93
2023-01-08T02:45:58.983Z,39.80
2023-01-08T02:46:59.728Z,37.06
2023-01-08T02:47:58.977Z,38.67
2023-01-08T02:48:58.853Z,39.48
2023-01-08T02:49:58.995Z,38.51
2023-01-08T02:50:58.829Z,37.71
2023-01-08T02:51:58.904Z,38.83
2023-01-08T02:52:58.873Z,38.67
2023-01-08T02:53:58.917Z,37.06
2023-01-08T02:54:58.878Z,37.22
2023-01-08T02:55:58.834Z,35.93
2023-01-08T02:56:58.799Z,41.25
2023-01-08T02:57:58.838Z,40.61
2023-01-08T02:58:58.824Z,38.51
2023-01-08T02:59:58.789Z,43.34
2023-01-08T03:00:58.901Z,39.96
2023-01-08T03:01:58.928Z,40.93
2023-01-08T03:02:58.765Z,39.48
2023-01-08T03:03:58.930Z,38.83
2023-01-08T03:04:58.736Z,41.57
2023-01-08T03:05:58.730Z,42.06
2023-01-08T03:06:58.742Z,37.38
2023-01-08T03:07:58.776Z,34.64
2023-01-08T03:08:58.701Z,39.48
2023-01-08T03:09:58.754Z,40.61
2023-01-08T03:10:58.696Z,40.28
2023-01-08T03:11:58.677Z,41.09
2023-01-08T03:12:58.669Z,37.22
2023-01-08T03:13:58.624Z,37.06
2023-01-08T03:14:58.676Z,37.06
2023-01-08T03:15:58.849Z,42.38
2023-01-08T03:16:58.723Z,43.02
2023-01-08T03:17:58.609Z,41.41
2023-01-08T03:18:59.133Z,42.86
2023-01-08T03:19:58.562Z,42.86
2023-01-08T03:20:58.584Z,38.35
2023-01-08T03:21:58.605Z,39.80
2023-01-08T03:22:58.550Z,43.34
2023-01-08T03:23:58.676Z,39.16
2023-01-08T03:24:58.572Z,35.77
2023-01-08T03:25:58.588Z,40.61
2023-01-08T03:26:58.550Z,40.77
2023-01-08T03:27:58.557Z,36.42
2023-01-08T03:28:58.480Z,35.77
2023-01-08T03:29:58.530Z,36.42
2023-01-08T03:30:58.501Z,41.89
2023-01-08T03:31:58.445Z,42.06
2023-01-08T03:32:58.460Z,38.99
2023-01-08T03:33:58.461Z,38.03
2023-01-08T03:34:58.447Z,37.87
2023-01-08T03:35:58.385Z,37.54
2023-01-08T03:36:58.398Z,38.83
2023-01-08T03:37:58.407Z,42.38
2023-01-08T03:38:58.609Z,39.64
2023-01-08T03:39:58.496Z,36.09
2023-01-08T03:40:58.346Z,36.42
2023-01-08T03:41:58.438Z,35.29
2023-01-08T03:42:58.363Z,36.25
2023-01-08T03:43:58.360Z,36.09
2023-01-08T03:44:58.329Z,42.22
2023-01-08T03:45:58.515Z,34.80
2023-01-08T03:46:58.318Z,34.00
2023-01-08T03:47:58.345Z,34.97
2023-01-08T03:48:58.260Z,36.42
2023-01-08T04:11:24.088Z,36.74
2023-01-08T04:12:23.734Z,42.38
2023-01-08T04:13:23.789Z,36.42
2023-01-08T04:14:23.683Z,37.22
2023-01-08T04:15:23.712Z,36.58
2023-01-08T04:16:23.715Z,34.80
2023-01-08T04:17:23.823Z,35.77
2023-01-08T04:18:23.654Z,36.42
2023-01-08T04:19:23.830Z,37.38
2023-01-08T04:20:23.616Z,37.87
2023-01-08T04:21:23.636Z,36.42
2023-01-08T04:22:23.598Z,35.77
2023-01-08T04:23:23.589Z,40.77
2023-01-08T04:24:23.537Z,40.12
2023-01-08T04:25:23.522Z,36.90
2023-01-08T04:26:23.655Z,40.77
2023-01-08T04:27:23.520Z,41.41
2023-01-08T04:28:24.269Z,40.61
2023-01-08T04:29:23.487Z,37.06
2023-01-08T04:30:23.542Z,42.22
2023-01-08T04:31:23.631Z,40.12
2023-01-08T04:32:23.552Z,35.13
2023-01-08T04:33:23.570Z,39.64
2023-01-08T04:34:23.449Z,34.80
2023-01-08T04:35:24.289Z,33.84
2023-01-08T04:36:23.459Z,36.25
2023-01-08T04:37:23.428Z,36.42
2023-01-08T04:38:23.435Z,38.83
2023-01-08T04:39:23.377Z,42.86
2023-01-08T04:40:23.456Z,40.77
2023-01-08T04:41:23.363Z,40.12
2023-01-08T04:42:23.354Z,38.03
2023-01-08T04:43:23.378Z,43.02
2023-01-08T04:44:23.363Z,42.86
2023-01-08T04:45:23.317Z,34.80
2023-01-08T04:46:23.431Z,37.38
2023-01-08T04:47:23.920Z,41.73
2023-01-08T04:48:23.313Z,38.83
2023-01-08T04:49:23.293Z,40.93
2023-01-08T04:50:23.258Z,39.96
2023-01-08T04:51:23.283Z,38.99
2023-01-08T04:52:23.289Z,36.90
2023-01-08T04:53:23.256Z,36.09
2023-01-08T04:54:23.269Z,41.41
2023-01-08T04:55:23.227Z,44.31
2023-01-08T04:56:23.218Z,35.13
2023-01-08T04:57:23.218Z,36.09
2023-01-08T04:58:23.259Z,34.97
2023-01-08T04:59:23.175Z,40.28
2023-01-08T05:00:23.185Z,37.06
2023-01-08T05:01:23.290Z,34.64
2023-01-08T05:02:23.323Z,44.79
2023-01-08T05:03:24.250Z,40.61
2023-01-08T05:04:23.216Z,36.58
2023-01-08T05:05:23.341Z,36.74
2023-01-08T05:06:23.096Z,36.42
2023-01-08T05:07:23.129Z,38.35
2023-01-08T05:08:23.170Z,35.29
2023-01-08T05:09:23.079Z,36.25
2023-01-08T05:10:23.110Z,37.54
2023-01-08T05:11:23.078Z,41.41
2023-01-08T05:12:23.101Z,47.70
2023-01-08T05:13:23.126Z,44.15
2023-01-08T05:14:23.112Z,41.09
2023-01-08T05:15:22.994Z,41.41
2023-01-08T05:16:23.027Z,45.12
2023-01-08T05:17:23.019Z,45.92
2023-01-08T05:18:22.989Z,41.57
2023-01-08T05:19:23.061Z,43.18
2023-01-08T05:20:22.975Z,43.02
2023-01-08T05:21:22.957Z,41.41
2023-01-08T05:22:23.063Z,48.34
2023-01-08T05:23:22.965Z,42.54
2023-01-08T05:24:23.894Z,43.02
2023-01-08T05:25:22.922Z,43.83
2023-01-08T05:26:22.883Z,43.51
2023-01-08T05:27:22.916Z,43.18
2023-01-08T05:28:23.168Z,42.54
2023-01-08T05:29:22.903Z,44.63
2023-01-08T05:30:22.962Z,42.70
2023-01-08T05:31:22.898Z,43.51
2023-01-08T05:32:22.853Z,46.25
2023-01-08T05:33:22.993Z,44.96
2023-01-08T05:45:03.199Z,48.82
2023-01-08T05:46:03.268Z,50.60
2023-01-08T05:47:05.094Z,51.08
2023-01-08T05:48:04.255Z,51.56
2023-01-08T05:49:04.205Z,51.72
2023-01-08T05:50:04.201Z,52.53
2023-01-08T05:51:04.235Z,53.17
2023-01-08T05:52:04.185Z,54.14
2023-01-08T05:53:04.866Z,53.98
2023-01-08T05:54:04.196Z,51.40
2023-01-08T05:55:04.163Z,52.05
2023-01-08T05:56:04.139Z,51.56
2023-01-08T05:57:04.140Z,52.53
2023-01-08T05:58:04.176Z,51.88
2023-01-08T05:59:04.177Z,52.53
2023-01-08T06:00:04.113Z,52.37
2023-01-08T06:01:04.087Z,51.08
2023-01-08T06:02:04.131Z,51.72
2023-01-08T06:03:04.120Z,51.72
2023-01-08T06:04:04.167Z,50.43
2023-01-08T06:05:04.987Z,50.11
2023-01-08T06:06:04.021Z,51.24
2023-01-08T06:07:04.102Z,50.27
2023-01-08T06:08:04.035Z,50.43
2023-01-08T06:09:04.063Z,50.43
2023-01-08T06:10:04.001Z,49.79
2023-01-08T06:11:04.059Z,51.08
2023-01-08T06:12:04.065Z,50.27
2023-01-08T06:13:03.979Z,49.31
2023-01-08T06:14:03.945Z,49.47
2023-01-08T06:15:03.985Z,49.79
2023-01-08T06:16:04.039Z,49.47
2023-01-08T06:17:03.954Z,49.95
2023-01-08T06:18:03.995Z,51.08
2023-01-08T06:19:03.968Z,51.56
2023-01-08T06:37:00.720Z,48.18
2023-01-08T06:38:00.721Z,48.50
2023-01-08T06:39:00.794Z,47.86
2023-01-08T06:40:02.138Z,47.37
2023-01-08T06:41:01.787Z,47.86
2023-01-08T06:42:01.898Z,49.79
2023-01-08T06:43:01.784Z,48.66
2023-01-08T06:44:01.815Z,48.02
2023-01-08T06:45:01.808Z,49.31
2023-01-08T06:46:01.745Z,47.53
2023-01-08T06:47:01.804Z,47.05
2023-01-08T06:48:01.736Z,48.50
2023-01-08T06:49:01.709Z,47.86
2023-01-08T06:50:01.696Z,47.21
2023-01-08T06:51:01.783Z,49.63
2023-01-08T06:52:01.732Z,49.79
2023-01-08T06:53:01.649Z,50.43
2023-01-08T06:54:01.733Z,48.82
2023-01-08T06:55:01.653Z,49.63
2023-01-08T06:56:01.621Z,49.15
2023-01-08T06:57:01.675Z,49.31
2023-01-08T06:58:01.612Z,48.18
2023-01-08T06:59:01.656Z,48.34
2023-01-08T07:00:01.625Z,46.89
2023-01-08T07:01:01.645Z,45.92
2023-01-08T07:02:01.704Z,48.50
2023-01-08T07:03:01.770Z,46.41
2023-01-08T07:04:01.582Z,48.98
2023-01-08T07:05:01.660Z,45.92
2023-01-08T07:06:01.590Z,49.15
2023-01-08T07:07:01.608Z,48.98
2023-01-08T07:08:01.573Z,49.63
2023-01-08T07:09:01.512Z,44.96
2023-01-08T07:10:01.637Z,44.96
2023-01-08T07:11:01.529Z,44.96
2023-01-08T07:12:01.450Z,43.83
2023-01-08T07:13:01.562Z,45.76
2023-01-08T07:14:01.459Z,43.18
2023-01-08T07:15:02.159Z,43.99
2023-01-08T07:16:01.504Z,46.08
2023-01-08T07:17:01.398Z,45.76
2023-01-08T07:18:01.410Z,45.44
2023-01-08T07:19:01.411Z,47.21
2023-01-08T07:20:01.427Z,49.63
2023-01-08T07:21:01.393Z,53.17
2023-01-08T07:22:01.437Z,43.83
2023-01-08T07:23:01.355Z,41.41
2023-01-08T07:24:01.523Z,40.61
2023-01-08T07:25:01.592Z,44.96
2023-01-08T07:26:01.355Z,45.12
2023-01-08T07:27:01.329Z,43.83
2023-01-08T07:28:01.363Z,42.54
2023-01-08T07:29:01.411Z,43.83
2023-01-08T07:30:01.320Z,46.89
2023-01-08T07:31:01.454Z,46.57
2023-01-08T07:32:01.269Z,45.12
2023-01-08T07:33:01.369Z,50.60
2023-01-08T07:34:01.273Z,42.70
2023-01-08T07:35:01.275Z,44.15
2023-01-08T07:36:01.239Z,47.37
2023-01-08T07:37:01.238Z,43.99
2023-01-08T07:38:02.084Z,47.05
2023-01-08T07:39:01.215Z,45.92
2023-01-08T07:40:01.327Z,47.05
2023-01-08T07:41:01.264Z,45.92
2023-01-08T07:42:01.218Z,46.89
2023-01-08T07:43:01.209Z,46.41
2023-01-08T07:44:01.141Z,47.37
2023-01-08T07:45:01.172Z,45.44
2023-01-08T07:46:01.170Z,44.96
2023-01-08T07:47:01.215Z,44.96
2023-01-08T07:48:01.119Z,46.57
2023-01-08T07:49:01.086Z,42.22
2023-01-08T07:50:01.142Z,44.79
2023-01-08T07:51:01.101Z,46.41
2023-01-08T07:52:01.065Z,46.89
2023-01-08T07:53:01.098Z,45.76
2023-01-08T07:54:01.093Z,50.43
2023-01-08T07:55:01.037Z,41.73
2023-01-08T07:56:01.176Z,46.73
2023-01-08T07:57:01.027Z,46.89
2023-01-08T07:58:01.058Z,48.02
2023-01-08T07:59:00.991Z,45.76
2023-01-08T08:00:01.033Z,46.89
2023-01-08T08:01:00.978Z,47.37
2023-01-08T08:02:01.117Z,45.28
2023-01-08T08:03:01.087Z,48.02
2023-01-08T08:04:00.958Z,43.99
2023-01-08T08:05:00.976Z,43.51
2023-01-08T08:06:00.949Z,42.86
2023-01-08T08:07:00.861Z,43.99
2023-01-08T08:08:01.585Z,47.37
2023-01-08T08:09:00.964Z,47.37
2023-01-08T08:10:01.492Z,45.28
2023-01-08T08:11:00.915Z,48.34
2023-01-08T08:12:00.966Z,52.37
2023-01-08T08:13:00.846Z,50.92
2023-01-08T08:14:00.867Z,49.63
2023-01-08T08:15:00.937Z,49.15
2023-01-08T08:16:00.873Z,52.05
2023-01-08T08:17:00.868Z,49.47
2023-01-08T08:18:00.838Z,47.37
2023-01-08T08:19:00.850Z,50.11
2023-01-08T08:20:00.804Z,48.18
2023-01-08T08:21:00.802Z,52.21
2023-01-08T08:22:01.627Z,49.15
2023-01-08T08:23:00.734Z,52.69
2023-01-08T08:24:00.749Z,51.24
2023-01-08T08:25:00.819Z,53.01
2023-01-08T08:26:00.757Z,52.21
2023-01-08T08:27:00.707Z,48.98
2023-01-08T08:28:00.794Z,47.37
2023-01-08T08:29:00.703Z,55.11
2023-01-08T08:30:00.721Z,47.70
2023-01-08T08:31:00.749Z,49.47
2023-01-08T08:32:00.707Z,47.37
2023-01-08T08:33:00.652Z,45.60
2023-01-08T08:34:00.712Z,50.60
2023-01-08T08:35:00.657Z,51.40
2023-01-08T08:36:00.636Z,49.15
2023-01-08T08:37:00.692Z,45.76
2023-01-08T08:38:00.616Z,47.37
2023-01-08T08:39:00.633Z,50.76
2023-01-08T08:40:00.614Z,48.02
2023-01-08T08:41:00.572Z,46.08
2023-01-08T08:42:00.613Z,46.73
2023-01-08T08:43:00.563Z,48.66
2023-01-08T08:44:00.597Z,49.15
2023-01-08T08:45:00.639Z,47.70
2023-01-08T08:46:00.628Z,48.34
2023-01-08T08:47:00.700Z,50.11
2023-01-08T08:48:00.597Z,47.05
2023-01-08T08:49:00.491Z,51.56
2023-01-08T08:50:00.499Z,51.08
2023-01-08T08:51:00.461Z,44.47
2023-01-08T08:52:00.463Z,48.66
2023-01-08T08:53:00.539Z,50.92
2023-01-08T08:54:00.436Z,48.02
2023-01-08T08:55:00.510Z,48.82
2023-01-08T08:56:00.390Z,51.40
2023-01-08T08:57:00.439Z,50.43
2023-01-08T08:58:00.388Z,50.76
2023-01-08T08:59:00.477Z,51.56
2023-01-08T09:00:01.396Z,49.63
2023-01-08T09:01:01.424Z,49.31
2023-01-08T09:02:00.519Z,51.24
2023-01-08T09:03:00.634Z,51.24
2023-01-08T09:04:00.342Z,47.53
2023-01-08T09:05:00.381Z,50.76
2023-01-08T09:06:00.284Z,49.15
2023-01-08T09:07:00.304Z,47.70
2023-01-08T09:08:00.417Z,47.37
2023-01-08T09:09:00.316Z,53.66
2023-01-08T09:10:00.309Z,53.33
2023-01-08T09:11:00.335Z,51.88
2023-01-08T09:12:00.234Z,45.60
2023-01-08T09:13:00.249Z,44.31
2023-01-08T09:14:00.235Z,49.15
2023-01-08T09:15:00.295Z,48.98
2023-01-08T09:16:00.338Z,49.79
2023-01-08T09:17:00.243Z,53.17
2023-01-08T09:18:00.227Z,48.98
2023-01-08T09:19:00.269Z,45.76
2023-01-08T09:20:00.186Z,51.88
2023-01-08T09:21:00.199Z,52.05
2023-01-08T09:22:00.153Z,49.47
2023-01-08T09:23:00.277Z,49.95
2023-01-08T09:24:00.163Z,50.27
2023-01-08T09:25:00.131Z,52.21
2023-01-08T09:26:00.211Z,50.76
2023-01-08T09:27:00.130Z,50.92
2023-01-08T09:28:00.112Z,48.50
2023-01-08T09:29:00.134Z,47.86
2023-01-08T09:30:00.204Z,45.76
2023-01-08T09:31:00.049Z,48.50
2023-01-08T09:32:00.413Z,51.88
2023-01-08T09:33:02.352Z,49.95
2023-01-08T09:34:01.008Z,52.21
2023-01-08T09:41:55.353Z,50.60
2023-01-08T09:42:55.328Z,45.28
2023-01-08T09:43:55.407Z,48.82
2023-01-08T09:44:55.263Z,48.34
2023-01-08T09:45:55.163Z,49.79
2023-01-08T09:46:55.204Z,53.01
2023-01-08T09:47:56.381Z,49.15
2023-01-08T09:48:56.321Z,48.50
2023-01-08T09:49:56.353Z,53.66
2023-01-08T09:50:56.313Z,53.50
2023-01-08T09:51:56.264Z,54.79
2023-01-08T09:52:56.490Z,51.08
2023-01-08T09:53:56.247Z,50.11
2023-01-08T09:54:56.328Z,50.60
2023-01-08T09:56:09.003Z,53.17
2023-01-08T09:56:58.342Z,54.30
2023-01-08T09:57:56.813Z,54.14
2023-01-08T09:58:56.229Z,52.85
2023-01-08T09:59:56.237Z,55.91
2023-01-08T10:00:56.264Z,53.33
2023-01-08T10:01:56.323Z,54.79
2023-01-08T10:02:56.156Z,51.40
2023-01-08T10:03:56.266Z,52.69
2023-01-08T10:04:56.149Z,51.88
2023-01-08T10:05:56.128Z,51.72
2023-01-08T10:06:56.141Z,51.56
2023-01-08T10:07:56.148Z,47.53
2023-01-08T10:08:56.101Z,51.56
2023-01-08T10:09:56.120Z,53.33
2023-01-08T10:10:56.058Z,52.21
2023-01-08T10:11:56.937Z,50.92
2023-01-08T10:12:56.194Z,51.08
2023-01-08T10:13:56.098Z,50.60
2023-01-08T10:14:56.067Z,52.21
2023-01-08T10:15:56.052Z,53.82
2023-01-08T10:16:56.033Z,54.30
2023-01-08T10:17:56.045Z,48.82
2023-01-08T10:18:56.043Z,53.82
2023-01-08T10:19:55.995Z,51.08
2023-01-08T10:20:56.029Z,49.63
2023-01-08T10:21:56.002Z,52.21
2023-01-08T10:22:55.943Z,53.98
2023-01-08T10:23:55.935Z,53.66
2023-01-08T10:24:56.029Z,54.79
2023-01-08T10:25:55.933Z,51.88
2023-01-08T10:26:55.964Z,51.88
2023-01-08T10:27:55.958Z,53.17
2023-01-08T10:28:55.934Z,52.69
2023-01-08T10:29:56.674Z,53.50
2023-01-08T10:30:55.892Z,56.40
2023-01-08T10:31:55.997Z,53.01
2023-01-08T10:32:55.905Z,52.05
2023-01-08T10:33:55.835Z,52.37
2023-01-08T10:34:55.910Z,53.50
2023-01-08T10:35:55.828Z,48.18
2023-01-08T10:36:55.960Z,52.69
2023-01-08T10:37:55.800Z,53.50
2023-01-08T10:38:55.876Z,52.21
2023-01-08T10:39:55.827Z,54.95
2023-01-08T10:40:55.806Z,53.01
2023-01-08T10:41:55.814Z,53.82
2023-01-08T10:42:55.781Z,52.05
2023-01-08T10:43:55.754Z,52.05
2023-01-08T10:44:55.808Z,51.40
2023-01-08T10:45:55.785Z,49.95
2023-01-08T10:46:55.752Z,53.33
2023-01-08T10:47:55.719Z,52.05
2023-01-08T10:48:55.780Z,50.27
2023-01-08T10:49:55.773Z,51.88
2023-01-08T10:50:55.760Z,53.01
2023-01-08T10:51:55.704Z,56.07
2023-01-08T10:52:55.751Z,55.11
2023-01-08T10:53:55.653Z,56.07
2023-01-08T10:54:55.739Z,53.82
2023-01-08T10:55:55.667Z,51.88
2023-01-08T10:56:55.747Z,52.05
2023-01-08T10:57:55.676Z,54.95
2023-01-08T10:58:55.732Z,52.05
2023-01-08T10:59:55.916Z,52.85
2023-01-08T11:00:55.769Z,53.98
2023-01-08T11:01:55.987Z,54.14
2023-01-08T11:02:55.593Z,54.30
2023-01-08T11:03:55.612Z,52.69
2023-01-08T11:04:56.359Z,56.40
2023-01-08T11:05:55.613Z,51.88
2023-01-08T11:06:55.542Z,54.62
2023-01-08T11:07:55.521Z,55.75
2023-01-08T11:08:55.500Z,51.40
2023-01-08T11:09:55.523Z,52.69
2023-01-08T11:10:55.474Z,51.56
2023-01-08T11:11:56.417Z,55.27
2023-01-08T11:12:55.532Z,52.69
2023-01-08T11:13:55.440Z,53.66
2023-01-08T11:14:55.495Z,56.24
2023-01-08T11:15:55.480Z,50.43
2023-01-08T11:16:55.456Z,53.82
2023-01-08T11:17:55.394Z,49.15
2023-01-08T11:18:55.405Z,51.56
2023-01-08T11:19:56.020Z,51.40
2023-01-08T11:20:56.408Z,54.95
2023-01-08T11:21:55.379Z,54.79
2023-01-08T11:22:55.367Z,55.11
2023-01-08T11:23:55.328Z,53.17
2023-01-08T11:24:55.354Z,54.30
2023-01-08T11:25:55.332Z,51.72
2023-01-08T11:26:55.342Z,52.21
2023-01-08T11:27:55.336Z,49.63
2023-01-08T11:28:55.262Z,53.66
2023-01-08T11:29:55.304Z,50.76
2023-01-08T11:30:55.394Z,53.66
2023-01-08T11:31:55.276Z,52.69
2023-01-08T11:32:55.463Z,53.01
2023-01-08T11:33:56.277Z,53.98
2023-01-08T11:34:55.309Z,53.82
2023-01-08T11:35:55.845Z,55.43
2023-01-08T11:36:55.509Z,54.62
2023-01-08T11:37:56.026Z,55.43
2023-01-08T11:38:55.224Z,50.92
2023-01-08T11:39:55.598Z,52.37
2023-01-08T11:40:55.337Z,53.50
2023-01-08T11:41:55.244Z,54.95
2023-01-08T11:42:55.496Z,55.91
2023-01-08T11:43:55.493Z,55.59
2023-01-08T11:44:55.181Z,50.92
2023-01-08T11:45:55.457Z,52.69
2023-01-08T11:46:55.184Z,50.60
2023-01-08T11:47:55.206Z,50.43
2023-01-08T11:48:56.419Z,50.43
2023-01-08T11:49:55.169Z,49.47
2023-01-08T11:50:55.340Z,53.82
2023-01-08T11:51:56.120Z,52.53
2023-01-08T11:52:55.103Z,53.66
2023-01-08T11:53:55.137Z,53.82
2023-01-08T11:54:55.396Z,53.50
2023-01-08T11:55:55.058Z,53.33
2023-01-08T11:56:55.152Z,54.79
2023-01-08T11:57:55.258Z,53.66
2023-01-08T11:58:55.108Z,49.31
2023-01-08T11:59:55.189Z,49.31
2023-01-08T12:00:55.093Z,50.60
2023-01-08T12:01:55.109Z,52.21
2023-01-08T12:02:55.138Z,52.37
2023-01-08T12:03:54.962Z,53.98
2023-01-08T12:04:55.884Z,48.34
2023-01-08T12:05:54.999Z,55.27
2023-01-08T12:06:55.321Z,50.92
2023-01-08T12:07:54.923Z,52.21
2023-01-08T12:08:54.913Z,54.95
2023-01-08T12:09:55.127Z,55.75
2023-01-08T12:10:55.045Z,53.50
2023-01-08T12:11:55.028Z,51.72
2023-01-08T12:12:54.837Z,51.40
2023-01-08T12:13:55.073Z,52.05
2023-01-08T12:14:55.458Z,54.30
2023-01-08T12:15:54.893Z,50.11
2023-01-08T12:16:54.912Z,49.63
2023-01-08T12:17:54.918Z,53.50
2023-01-08T12:18:54.804Z,54.46
2023-01-08T12:19:54.781Z,55.75
2023-01-08T12:20:54.817Z,54.79
2023-01-08T12:21:54.763Z,55.43
2023-01-08T12:22:54.913Z,56.56
2023-01-08T12:23:55.175Z,52.21
2023-01-08T12:24:55.073Z,52.85
2023-01-08T12:25:54.804Z,51.40
2023-01-08T12:26:54.827Z,52.69
2023-01-08T12:27:57.401Z,55.27
2023-01-08T12:28:56.041Z,55.43
2023-01-08T12:29:55.014Z,56.24
2023-01-08T12:30:54.728Z,54.62
2023-01-08T12:32:02.978Z,50.43
2023-01-08T12:32:56.781Z,53.17
2023-01-08T12:33:54.761Z,55.75
2023-01-08T12:34:54.733Z,53.01
2023-01-08T12:35:55.033Z,55.27
2023-01-08T12:36:54.815Z,47.53
2023-01-08T12:37:54.730Z,53.66
2023-01-08T12:38:54.624Z,54.14
2023-01-08T12:39:54.644Z,56.24
2023-01-08T12:40:54.633Z,53.33
2023-01-08T12:41:54.655Z,54.30
2023-01-08T12:43:01.065Z,51.24
2023-01-08T12:43:57.478Z,56.56
2023-01-08T12:44:54.586Z,55.75
2023-01-08T12:45:54.833Z,55.43
2023-01-08T12:46:54.729Z,55.27
2023-01-08T12:47:55.402Z,53.98
2023-01-08T12:48:54.621Z,56.24
2023-01-08T12:49:54.519Z,54.79
2023-01-08T12:50:54.981Z,51.24
2023-01-08T12:51:54.496Z,53.66
2023-01-08T12:52:54.650Z,53.01
2023-01-08T12:53:55.018Z,54.30
2023-01-08T12:54:54.534Z,55.11
2023-01-08T12:55:54.642Z,53.66
2023-01-08T12:56:54.586Z,54.14
2023-01-08T12:57:54.477Z,55.91
2023-01-08T12:58:54.487Z,52.37
2023-01-08T12:59:54.694Z,53.17
2023-01-08T13:00:54.559Z,53.98
2023-01-08T13:01:54.674Z,56.40
2023-01-08T13:02:54.480Z,57.04
2023-01-08T13:03:54.412Z,56.72
2023-01-08T13:04:54.423Z,53.82
2023-01-08T13:05:54.345Z,52.69
2023-01-08T13:06:54.385Z,51.24
2023-01-08T13:07:54.326Z,53.66
2023-01-08T13:08:54.496Z,53.98
2023-01-08T13:09:54.396Z,51.56
2023-01-08T13:10:54.383Z,54.79
2023-01-08T13:11:54.322Z,53.01
2023-01-08T13:12:54.348Z,51.24
2023-01-08T13:13:54.348Z,55.75
2023-01-08T13:14:54.217Z,53.98
2023-01-08T13:15:54.360Z,55.75
2023-01-08T13:16:54.304Z,53.17
2023-01-08T13:17:54.678Z,53.17
2023-01-08T13:18:54.186Z,54.79
2023-01-08T13:19:54.321Z,53.17
2023-01-08T13:20:54.208Z,55.27
2023-01-08T13:21:54.556Z,55.43
2023-01-08T13:22:54.430Z,52.37
2023-01-08T13:23:54.467Z,54.79
2023-01-08T13:24:54.177Z,55.75
2023-01-08T13:25:54.313Z,54.79
2023-01-08T13:26:54.199Z,54.79
2023-01-08T13:27:54.280Z,53.98
2023-01-08T13:28:55.122Z,53.66
2023-01-08T13:29:54.142Z,55.75
2023-01-08T13:30:54.166Z,53.82
2023-01-08T13:31:54.244Z,56.24
2023-01-08T13:32:54.082Z,57.85
2023-01-08T13:33:54.263Z,55.27
2023-01-08T13:34:54.150Z,55.27
2023-01-08T13:35:54.507Z,55.11
2023-01-08T13:36:54.249Z,53.33
2023-01-08T13:37:54.016Z,54.46
2023-01-08T13:38:54.325Z,53.17
2023-01-08T13:39:54.052Z,53.66
2023-01-08T13:40:54.112Z,55.91
2023-01-08T13:41:53.966Z,55.59
2023-01-08T13:42:54.107Z,56.72
2023-01-08T13:43:53.955Z,53.98
2023-01-08T13:44:54.212Z,53.98
2023-01-08T13:45:54.021Z,56.56
2023-01-08T13:46:59.339Z,56.24
2023-01-08T13:47:53.893Z,53.33